Time;durP1;ratioP1;P1;durP2;ratioP2;P2;SDS_P1;SDS_P2;PMS_P1;PMS_P2;Temp;Humidity;BMP_temperature;BMP_pressure;BME280_temperature;BME280_humidity;BME280_pressure;Samples;Min_cycle;Max_cycle;Signal;HPM_P1;HPM_P2
2023/06/25 00:01:23;;;;;;;;;;;28.90;46.70;;;;;;5106765;27;43489;-87
2023/06/25 00:03:49;;;;;;;;;;;28.90;46.70;;;;;;5101153;27;42988;-86
2023/06/25 00:06:15;;;;;;;;;;;28.90;46.60;;;;;;5103971;27;42985;-77
2023/06/25 00:08:40;;;;;;;;;;;28.90;46.50;;;;;;5106080;27;43078;-86
2023/06/25 00:11:06;;;;;;;;;;;28.90;46.00;;;;;;5106961;27;42873;-79
2023/06/25 00:13:31;;;;;;;;;;;28.90;46.00;;;;;;5103758;27;43068;-83
2023/06/25 00:15:57;;;;;;;;;;;28.90;46.40;;;;;;5092198;27;43609;-77
2023/06/25 00:18:25;;;;;;;;;;;28.80;45.90;;;;;;5099569;27;43035;-80
2023/06/25 00:20:50;;;;;;;;;;;28.90;46.40;;;;;;5106820;27;42716;-78
2023/06/25 00:23:16;;;;;;;;;;;28.90;46.50;;;;;;5105228;27;43041;-85
2023/06/25 00:25:41;;;;;;;;;;;28.80;45.90;;;;;;5106662;27;42924;-85
2023/06/25 00:28:08;;;;;;;;;;;28.90;46.50;;;;;;5106736;27;42837;-86
2023/06/25 00:30:34;;;;;;;;;;;28.80;45.90;;;;;;5106187;27;44446;-77
2023/06/25 00:33:00;;;;;;;;;;;28.90;46.00;;;;;;5098186;27;42913;-77
2023/06/25 00:35:26;;;;;;;;;;;28.80;46.40;;;;;;5106447;27;43206;-77
2023/06/25 00:38:00;;;;;;;;;;;28.90;46.00;;;;;;5106386;27;42894;-77
2023/06/25 00:40:26;;;;;;;;;;;28.90;46.00;;;;;;5106306;27;42940;-82
2023/06/25 00:42:56;;;;;;;;;;;28.80;46.40;;;;;;5106483;27;42920;-75
2023/06/25 00:45:24;;;;;;;;;;;28.90;46.50;;;;;;5106419;27;42913;-77
2023/06/25 00:47:50;;;;;;;;;;;28.80;45.90;;;;;;5105914;27;43171;-77
2023/06/25 00:50:21;;;;;;;;;;;28.90;46.50;;;;;;5106717;27;43045;-79
2023/06/25 00:52:48;;;;;;;;;;;28.80;45.90;;;;;;5106221;27;42849;-78
2023/06/25 00:55:14;;;;;;;;;;;28.80;46.00;;;;;;5097327;27;42956;-77
2023/06/25 00:57:41;;;;;;;;;;;28.80;46.00;;;;;;5106443;27;42944;-76
2023/06/25 01:00:13;;;;;;;;;;;28.90;46.50;;;;;;5105427;27;42969;-76
2023/06/25 01:02:53;;;;;;;;;;;28.80;45.90;;;;;;5106042;27;43068;-77
2023/06/25 01:05:22;;;;;;;;;;;28.90;46.50;;;;;;5105864;27;43956;-87
2023/06/25 01:07:49;;;;;;;;;;;28.90;46.40;;;;;;5103639;27;42983;-77
2023/06/25 01:10:15;;;;;;;;;;;28.90;46.00;;;;;;5105263;27;43920;-76
2023/06/25 01:12:42;;;;;;;;;;;28.90;46.40;;;;;;5104856;27;42853;-87
2023/06/25 01:15:09;;;;;;;;;;;28.80;46.40;;;;;;5105712;27;44113;-77
2023/06/25 01:17:36;;;;;;;;;;;28.80;45.90;;;;;;5106210;27;42995;-77
2023/06/25 01:20:02;;;;;;;;;;;28.80;45.90;;;;;;5105830;27;43547;-86
2023/06/25 01:22:28;;;;;;;;;;;;;;;;;;5105598;27;43142;-77
2023/06/25 01:24:54;;;;;;;;;;;28.80;45.90;;;;;;5105142;27;44118;-77
2023/06/25 01:27:21;;;;;;;;;;;28.80;45.90;;;;;;5085394;27;43090;-76
2023/06/25 01:29:48;;;;;;;;;;;28.80;46.00;;;;;;5097995;27;42940;-75
2023/06/25 01:32:14;;;;;;;;;;;28.80;46.00;;;;;;5105828;27;42860;-76
2023/06/25 01:34:39;;;;;;;;;;;28.80;46.00;;;;;;5138921;27;42900;-77
2023/06/25 01:37:06;;;;;;;;;;;28.80;46.50;;;;;;5103616;27;43176;-77
2023/06/25 01:39:32;;;;;;;;;;;28.80;46.40;;;;;;5104871;27;42940;-76
2023/06/25 01:41:58;;;;;;;;;;;28.80;46.00;;;;;;5105618;27;43030;-77
2023/06/25 01:44:30;;;;;;;;;;;28.80;45.90;;;;;;5105171;27;42977;-85
2023/06/25 01:46:56;;;;;;;;;;;28.80;45.90;;;;;;5104931;27;43000;-87
2023/06/25 01:49:24;;;;;;;;;;;28.80;46.40;;;;;;5103789;27;62409;-76
2023/06/25 01:51:50;;;;;;;;;;;28.80;45.90;;;;;;5105375;27;42964;-77
2023/06/25 01:54:16;;;;;;;;;;;28.80;45.90;;;;;;5105454;27;42995;-77
2023/06/25 01:56:42;;;;;;;;;;;28.80;45.90;;;;;;5105105;27;42925;-85
2023/06/25 01:59:08;;;;;;;;;;;28.80;46.40;;;;;;5105351;27;42943;-76
2023/06/25 02:01:33;;;;;;;;;;;28.80;45.90;;;;;;5105566;27;43086;-80
2023/06/25 02:03:59;;;;;;;;;;;28.80;45.90;;;;;;5103645;27;43523;-79
2023/06/25 02:06:25;;;;;;;;;;;28.80;46.40;;;;;;5104658;27;43024;-78
2023/06/25 02:08:50;;;;;;;;;;;28.80;45.90;;;;;;5104789;27;44470;-76
2023/06/25 02:11:16;;;;;;;;;;;28.80;45.90;;;;;;5105158;27;43019;-76
2023/06/25 02:13:41;;;;;;;;;;;28.80;45.90;;;;;;5104601;27;43573;-77
2023/06/25 02:16:07;;;;;;;;;;;28.70;45.90;;;;;;5105418;27;42965;-85
2023/06/25 02:18:32;;;;;;;;;;;28.80;46.00;;;;;;5104995;27;43371;-77
2023/06/25 02:20:58;;;;;;;;;;;28.80;45.90;;;;;;5104697;27;43026;-77
2023/06/25 02:23:24;;;;;;;;;;;28.80;46.50;;;;;;5104974;27;43034;-76
2023/06/25 02:25:52;;;;;;;;;;;28.80;45.90;;;;;;5104757;27;42927;-83
2023/06/25 02:28:17;;;;;;;;;;;28.80;46.00;;;;;;5104680;27;43595;-83
2023/06/25 02:30:43;;;;;;;;;;;28.80;45.90;;;;;;5102493;27;43518;-75
2023/06/25 02:33:09;;;;;;;;;;;28.80;46.50;;;;;;5107355;27;42872;-76
2023/06/25 02:35:34;;;;;;;;;;;28.80;46.10;;;;;;5108899;27;42938;-76
2023/06/25 02:38:00;;;;;;;;;;;28.80;46.10;;;;;;5107995;27;42975;-76
2023/06/25 02:40:27;;;;;;;;;;;28.80;46.10;;;;;;5108740;27;42921;-76
2023/06/25 02:42:53;;;;;;;;;;;28.80;46.10;;;;;;5107468;27;43441;-78
2023/06/25 02:45:19;;;;;;;;;;;;;;;;;;5107918;27;43070;-77
2023/06/25 02:47:44;;;;;;;;;;;28.80;46.10;;;;;;5107632;27;43882;-77
2023/06/25 02:50:10;;;;;;;;;;;28.80;46.60;;;;;;5107834;27;43091;-82
2023/06/25 02:52:35;;;;;;;;;;;28.80;46.10;;;;;;5107872;27;43391;-76
2023/06/25 02:55:01;;;;;;;;;;;28.60;46.00;;;;;;5108391;27;42960;-77
2023/06/25 02:57:29;;;;;;;;;;;28.80;46.10;;;;;;5108221;27;42949;-78
2023/06/25 02:59:57;;;;;;;;;;;28.80;46.50;;;;;;5107903;27;43046;-76
2023/06/25 03:02:23;;;;;;;;;;;28.80;46.00;;;;;;5106393;27;43009;-79
2023/06/25 03:04:49;;;;;;;;;;;28.80;46.50;;;;;;5108283;27;42972;-77
2023/06/25 03:07:14;;;;;;;;;;;28.80;46.00;;;;;;5107758;27;43547;-85
2023/06/25 03:09:40;;;;;;;;;;;28.80;46.00;;;;;;5107689;27;42927;-78
2023/06/25 03:12:06;;;;;;;;;;;;;;;;;;5107184;27;43431;-77
2023/06/25 03:14:32;;;;;;;;;;;28.80;45.90;;;;;;5108031;27;43050;-76
2023/06/25 03:16:57;;;;;;;;;;;28.80;45.90;;;;;;5100194;27;43038;-77
2023/06/25 03:19:23;;;;;;;;;;;28.70;45.90;;;;;;5093174;27;42861;-78
2023/06/25 03:21:49;;;;;;;;;;;28.70;45.80;;;;;;5108066;27;42775;-76
2023/06/25 03:24:14;;;;;;;;;;;28.70;45.80;;;;;;5107552;27;43071;-78
2023/06/25 03:26:40;;;;;;;;;;;28.70;45.80;;;;;;5099830;27;43020;-84
2023/06/25 03:29:05;;;;;;;;;;;28.80;45.90;;;;;;5107717;27;42841;-77
2023/06/25 03:31:31;;;;;;;;;;;28.70;45.80;;;;;;5107499;27;43177;-77
2023/06/25 03:33:56;;;;;;;;;;;28.60;45.70;;;;;;5107654;27;42885;-77
2023/06/25 03:36:22;;;;;;;;;;;28.60;45.70;;;;;;5107440;27;43022;-82
2023/06/25 03:38:48;;;;;;;;;;;28.70;45.80;;;;;;5107397;27;42934;-78
2023/06/25 03:41:13;;;;;;;;;;;28.80;45.70;;;;;;5107545;27;43952;-80
2023/06/25 03:43:39;;;;;;;;;;;28.80;45.60;;;;;;5106055;27;42916;-82
2023/06/25 03:46:04;;;;;;;;;;;;;;;;;;5106929;27;42963;-77
2023/06/25 03:48:30;;;;;;;;;;;28.90;45.40;;;;;;5107386;27;43055;-76
2023/06/25 03:50:56;;;;;;;;;;;;;;;;;;5107217;27;43516;-79
2023/06/25 03:53:21;;;;;;;;;;;28.90;45.30;;;;;;5107098;27;43038;-77
2023/06/25 03:55:47;;;;;;;;;;;28.90;45.30;;;;;;5107196;27;43962;-76
2023/06/25 03:58:13;;;;;;;;;;;;;;;;;;5106965;27;43664;-76
2023/06/25 04:00:39;;;;;;;;;;;;;;;;;;5107264;27;43963;-76
2023/06/25 04:03:05;;;;;;;;;;;28.90;45.20;;;;;;5106125;27;42871;-77
2023/06/25 04:05:31;;;;;;;;;;;;;;;;;;5106598;27;43645;-78
2023/06/25 04:07:57;;;;;;;;;;;;;;;;;;5107382;27;42960;-77
2023/06/25 04:10:22;;;;;;;;;;;;;;;;;;5094307;27;42964;-77
2023/06/25 04:12:48;;;;;;;;;;;28.90;45.20;;;;;;5107229;27;43127;-76
2023/06/25 04:15:14;;;;;;;;;;;28.90;45.20;;;;;;5106575;27;43855;-84
2023/06/25 04:17:40;;;;;;;;;;;28.90;45.40;;;;;;5107328;27;42958;-75
2023/06/25 04:20:06;;;;;;;;;;;28.80;45.50;;;;;;5106970;27;42922;-87
2023/06/25 04:22:32;;;;;;;;;;;28.80;45.70;;;;;;5106471;27;42963;-79
2023/06/25 04:24:57;;;;;;;;;;;28.80;45.70;;;;;;5106841;27;43739;-86
2023/06/25 04:27:24;;;;;;;;;;;28.70;45.80;;;;;;5106650;27;42959;-77
2023/06/25 04:29:49;;;;;;;;;;;28.80;45.80;;;;;;5099724;27;43619;-83
2023/06/25 04:32:15;;;;;;;;;;;28.70;45.80;;;;;;5099071;27;43106;-82
2023/06/25 04:34:41;;;;;;;;;;;28.70;45.80;;;;;;5102558;27;43058;-78
2023/06/25 04:37:06;;;;;;;;;;;28.80;46.40;;;;;;5097490;27;42874;-78
2023/06/25 04:39:32;;;;;;;;;;;28.70;45.80;;;;;;5106144;27;43550;-83
2023/06/25 04:41:57;;;;;;;;;;;28.70;45.80;;;;;;5107038;27;42889;-78
2023/06/25 04:44:24;;;;;;;;;;;28.70;45.80;;;;;;5106723;27;43747;-76
2023/06/25 04:46:49;;;;;;;;;;;28.70;46.30;;;;;;5106131;27;42990;-84
2023/06/25 04:49:15;;;;;;;;;;;28.70;45.90;;;;;;5106293;27;43536;-76
2023/06/25 04:51:44;;;;;;;;;;;28.70;45.90;;;;;;5106102;27;43020;-76
2023/06/25 04:54:09;;;;;;;;;;;28.70;46.40;;;;;;5105320;27;43007;-76
2023/06/25 04:56:35;;;;;;;;;;;28.70;45.90;;;;;;5105159;27;43084;-77
2023/06/25 04:59:00;;;;;;;;;;;28.70;46.40;;;;;;5106206;27;43284;-77
2023/06/25 05:01:26;;;;;;;;;;;28.70;45.90;;;;;;5106411;27;42783;-76
2023/06/25 05:03:51;;;;;;;;;;;28.70;45.90;;;;;;5105141;27;44041;-78
2023/06/25 05:06:17;;;;;;;;;;;28.70;46.00;;;;;;5106361;27;42821;-76
2023/06/25 05:08:42;;;;;;;;;;;28.70;46.00;;;;;;5105969;27;42904;-77
2023/06/25 05:11:08;;;;;;;;;;;28.70;46.50;;;;;;5106583;27;43067;-76
2023/06/25 05:13:35;;;;;;;;;;;28.70;46.00;;;;;;5105115;27;43585;-78
2023/06/25 05:16:01;;;;;;;;;;;28.70;46.10;;;;;;5105444;27;42996;-78
2023/06/25 05:18:26;;;;;;;;;;;28.70;46.60;;;;;;5105835;27;43528;-84
2023/06/25 05:20:52;;;;;;;;;;;28.70;46.60;;;;;;5105983;27;43078;-77
2023/06/25 05:23:17;;;;;;;;;;;28.70;46.60;;;;;;5105924;27;42810;-76
2023/06/25 05:25:43;;;;;;;;;;;28.70;46.20;;;;;;5105475;27;42960;-78
2023/06/25 05:28:08;;;;;;;;;;;28.70;46.20;;;;;;5104316;27;44560;-78
2023/06/25 05:30:34;;;;;;;;;;;28.70;46.20;;;;;;5105318;27;43098;-76
2023/06/25 05:33:02;;;;;;;;;;;28.70;46.30;;;;;;5105467;27;43997;-76
2023/06/25 05:35:30;;;;;;;;;;;28.70;46.30;;;;;;5105910;27;42869;-78
2023/06/25 05:37:56;;;;;;;;;;;28.80;46.90;;;;;;5106013;27;42940;-76
2023/06/25 05:40:22;;;;;;;;;;;28.70;46.90;;;;;;5105113;27;42863;-81
2023/06/25 05:42:48;;;;;;;;;;;28.80;46.90;;;;;;5104992;27;43451;-77
2023/06/25 05:45:13;;;;;;;;;;;28.70;46.40;;;;;;5105630;27;42813;-77
2023/06/25 05:47:39;;;;;;;;;;;28.70;46.50;;;;;;5105287;27;43509;-77
2023/06/25 05:50:05;;;;;;;;;;;28.70;47.00;;;;;;5105418;27;42865;-77
2023/06/25 05:52:30;;;;;;;;;;;28.70;46.50;;;;;;5104673;27;42898;-77
2023/06/25 05:54:56;;;;;;;;;;;28.70;47.00;;;;;;5105059;27;43015;-77
2023/06/25 05:57:21;;;;;;;;;;;28.80;47.10;;;;;;5104132;27;43484;-76
2023/06/25 05:59:47;;;;;;;;;;;28.80;47.10;;;;;;5105253;27;42964;-78
2023/06/25 06:02:12;;;;;;;;;;;28.80;47.10;;;;;;5103951;27;44032;-79
2023/06/25 06:04:38;;;;;;;;;;;28.80;47.00;;;;;;5104799;27;43044;-77
2023/06/25 06:07:03;;;;;;;;;;;28.80;47.00;;;;;;5103940;27;42882;-79
2023/06/25 06:09:29;;;;;;;;;;;28.70;46.50;;;;;;5104879;27;43185;-82
2023/06/25 06:11:55;;;;;;;;;;;28.80;47.10;;;;;;5104896;27;42893;-77
2023/06/25 06:14:20;;;;;;;;;;;28.80;46.60;;;;;;5104955;27;42947;-77
2023/06/25 06:16:46;;;;;;;;;;;28.80;47.10;;;;;;5104607;27;43017;-79
2023/06/25 06:19:11;;;;;;;;;;;28.70;46.60;;;;;;5105166;27;42976;-79
2023/06/25 06:21:37;;;;;;;;;;;28.80;46.60;;;;;;5105024;27;43873;-75
2023/06/25 06:24:03;;;;;;;;;;;28.70;46.60;;;;;;5105737;27;43268;-77
2023/06/25 06:26:28;;;;;;;;;;;28.80;47.10;;;;;;5105031;27;43072;-77
2023/06/25 06:28:54;;;;;;;;;;;28.70;47.00;;;;;;5105171;27;43051;-77
2023/06/25 06:31:20;;;;;;;;;;;28.80;46.90;;;;;;5105017;27;42912;-77
2023/06/25 06:33:45;;;;;;;;;;;28.80;46.90;;;;;;5103732;27;42928;-77
2023/06/25 06:36:12;;;;;;;;;;;28.80;46.40;;;;;;5104342;27;43045;-77
2023/06/25 06:38:38;;;;;;;;;;;28.80;46.90;;;;;;5104621;27;43050;-77
2023/06/25 06:41:03;;;;;;;;;;;28.80;46.40;;;;;;5104689;27;43172;-76
2023/06/25 06:43:29;;;;;;;;;;;28.80;46.90;;;;;;5104701;27;42858;-78
2023/06/25 06:45:55;;;;;;;;;;;28.80;46.40;;;;;;5103209;27;43779;-78
2023/06/25 06:48:20;;;;;;;;;;;28.80;46.80;;;;;;5104446;27;43015;-80
2023/06/25 06:50:46;;;;;;;;;;;28.70;46.30;;;;;;5104005;27;44364;-77
2023/06/25 06:53:11;;;;;;;;;;;28.80;46.30;;;;;;5104288;27;42956;-77
2023/06/25 06:55:37;;;;;;;;;;;28.70;46.20;;;;;;5104152;27;43062;-77
2023/06/25 06:58:02;;;;;;;;;;;28.80;46.70;;;;;;5104827;27;42877;-78
2023/06/25 07:00:28;;;;;;;;;;;28.80;46.80;;;;;;5104566;27;43685;-76
2023/06/25 07:02:56;;;;;;;;;;;28.80;46.80;;;;;;5103387;27;43035;-77
2023/06/25 07:05:22;;;;;;;;;;;28.80;46.80;;;;;;5104288;27;42866;-76
2023/06/25 07:07:48;;;;;;;;;;;28.80;46.30;;;;;;5104478;27;42933;-76
2023/06/25 07:10:13;;;;;;;;;;;28.80;46.30;;;;;;5104262;27;43668;-84
2023/06/25 07:12:39;;;;;;;;;;;28.80;46.20;;;;;;5103999;27;43042;-78
2023/06/25 07:15:05;;;;;;;;;;;28.80;46.20;;;;;;5103926;27;43628;-77
2023/06/25 07:17:30;;;;;;;;;;;28.80;46.20;;;;;;5104174;27;43066;-77
2023/06/25 07:19:56;;;;;;;;;;;28.80;46.20;;;;;;5107854;27;43871;-77
2023/06/25 07:22:21;;;;;;;;;;;28.80;46.70;;;;;;5108020;27;42982;-77
2023/06/25 07:24:47;;;;;;;;;;;28.80;46.70;;;;;;5108057;27;43055;-77
2023/06/25 07:27:12;;;;;;;;;;;28.90;46.80;;;;;;5107587;27;42882;-78
2023/06/25 07:29:38;;;;;;;;;;;28.80;46.20;;;;;;5108065;27;42993;-77
2023/06/25 07:32:03;;;;;;;;;;;28.80;46.70;;;;;;5094618;27;42937;-80
2023/06/25 07:34:29;;;;;;;;;;;28.80;46.80;;;;;;5107155;27;43564;-77
2023/06/25 07:36:54;;;;;;;;;;;28.80;46.20;;;;;;5107441;27;42905;-78
2023/06/25 07:39:29;;;;;;;;;;;28.90;46.70;;;;;;5106732;27;43032;-78
2023/06/25 07:41:55;;;;;;;;;;;28.80;46.60;;;;;;5107104;27;43007;-78
2023/06/25 07:44:21;;;;;;;;;;;28.90;46.60;;;;;;5107856;27;43380;-77
2023/06/25 07:46:46;;;;;;;;;;;28.90;46.60;;;;;;5107649;27;42938;-80
2023/06/25 07:49:12;;;;;;;;;;;28.90;46.50;;;;;;5107471;27;42925;-76
2023/06/25 07:51:37;;;;;;;;;;;28.90;46.10;;;;;;5093807;27;42747;-77
2023/06/25 07:54:03;;;;;;;;;;;28.80;46.10;;;;;;5106950;27;43189;-77
2023/06/25 07:56:28;;;;;;;;;;;28.80;46.00;;;;;;5107123;27;42885;-77
2023/06/25 07:58:54;;;;;;;;;;;28.70;45.80;;;;;;5107336;27;43494;-77
2023/06/25 08:01:20;;;;;;;;;;;28.80;45.80;;;;;;5107567;27;42974;-78
2023/06/25 08:03:46;;;;;;;;;;;28.90;45.80;;;;;;5105608;27;42857;-76
2023/06/25 08:06:11;;;;;;;;;;;28.80;46.30;;;;;;5107176;27;43139;-77
2023/06/25 08:08:37;;;;;;;;;;;28.90;45.60;;;;;;5107411;27;43003;-76
2023/06/25 08:11:02;;;;;;;;;;;28.80;45.40;;;;;;5107208;27;43060;-78
2023/06/25 08:13:28;;;;;;;;;;;28.80;45.50;;;;;;5106679;27;42901;-77
2023/06/25 08:15:54;;;;;;;;;;;;;;;;;;5091417;27;42945;-78
2023/06/25 08:18:20;;;;;;;;;;;28.80;45.10;;;;;;5106613;27;42881;-78
2023/06/25 08:20:46;;;;;;;;;;;28.80;45.00;;;;;;5107025;27;42836;-77
2023/06/25 08:23:11;;;;;;;;;;;28.80;45.40;;;;;;5106240;27;42863;-77
2023/06/25 08:25:37;;;;;;;;;;;28.80;45.50;;;;;;5106550;27;43037;-78
2023/06/25 08:28:03;;;;;;;;;;;28.80;44.90;;;;;;5106933;27;43020;-81
2023/06/25 08:30:29;;;;;;;;;;;28.80;44.90;;;;;;5105896;27;44208;-77
2023/06/25 08:32:54;;;;;;;;;;;28.90;45.40;;;;;;5105082;27;45373;-77
2023/06/25 08:35:20;;;;;;;;;;;28.80;44.70;;;;;;5106508;27;42952;-78
2023/06/25 08:37:45;;;;;;;;;;;28.80;45.10;;;;;;5106556;27;43595;-86
2023/06/25 08:40:12;;;;;;;;;;;28.80;44.60;;;;;;5106470;27;42970;-80
2023/06/25 08:42:37;;;;;;;;;;;28.90;45.10;;;;;;5105964;27;43954;-77
2023/06/25 08:45:03;;;;;;;;;;;28.90;45.20;;;;;;5106662;27;42905;-76
2023/06/25 08:47:32;;;;;;;;;;;28.80;45.20;;;;;;5105701;27;43413;-78
2023/06/25 08:49:58;;;;;;;;;;;28.90;45.30;;;;;;5106181;27;43004;-77
2023/06/25 08:52:24;;;;;;;;;;;28.90;45.20;;;;;;5106315;27;42884;-77
2023/06/25 08:54:50;;;;;;;;;;;28.90;45.50;;;;;;5106170;27;42826;-79
2023/06/25 08:57:16;;;;;;;;;;;28.90;45.00;;;;;;5105874;27;42888;-84
2023/06/25 08:59:41;;;;;;;;;;;28.90;45.50;;;;;;5106618;27;42976;-86
2023/06/25 09:02:07;;;;;;;;;;;28.80;44.90;;;;;;5106408;27;43026;-88
2023/06/25 09:04:32;;;;;;;;;;;28.80;45.60;;;;;;5104706;27;42896;-78
2023/06/25 09:07:05;;;;;;;;;;;28.90;44.90;;;;;;5106490;27;43862;-87
2023/06/25 09:09:31;;;;;;;;;;;28.90;44.80;;;;;;5105778;27;43066;-77
2023/06/25 09:11:56;;;;;;;;;;;28.90;45.50;;;;;;5105517;27;43699;-77
2023/06/25 09:14:22;;;;;;;;;;;28.90;45.40;;;;;;5106474;27;43037;-85
2023/06/25 09:16:48;;;;;;;;;;;28.80;44.60;;;;;;5105696;27;43793;-87
2023/06/25 09:19:19;;;;;;;;;;;28.90;45.00;;;;;;5106230;27;42923;-77
2023/06/25 09:21:46;;;;;;;;;;;28.80;44.80;;;;;;5106263;27;42815;-80
2023/06/25 09:24:16;;;;;;;;;;;28.90;44.80;;;;;;5106084;27;42967;-79
2023/06/25 09:26:47;;;;;;;;;;;28.90;44.50;;;;;;5092280;27;43423;-86
2023/06/25 09:29:13;;;;;;;;;;;28.90;44.40;;;;;;5105845;27;42896;-76
2023/06/25 09:31:43;;;;;;;;;;;28.90;44.80;;;;;;5105905;27;43585;-76
2023/06/25 09:34:09;;;;;;;;;;;28.90;44.70;;;;;;5088139;27;42942;-87
2023/06/25 09:36:37;;;;;;;;;;;28.90;44.90;;;;;;5104959;27;43606;-77
2023/06/25 09:39:04;;;;;;;;;;;28.90;44.40;;;;;;5106288;27;42933;-78
2023/06/25 09:41:32;;;;;;;;;;;28.90;44.50;;;;;;5103726;27;44531;-77
2023/06/25 09:43:59;;;;;;;;;;;28.90;44.90;;;;;;5104973;27;42961;-77
2023/06/25 09:46:25;;;;;;;;;;;29.00;45.00;;;;;;5105506;27;42966;-77
2023/06/25 09:48:53;;;;;;;;;;;29.00;45.00;;;;;;5105055;27;42960;-78
2023/06/25 09:51:19;;;;;;;;;;;28.90;44.30;;;;;;5104757;27;42853;-81
2023/06/25 09:53:47;;;;;;;;;;;28.90;44.80;;;;;;5102639;27;42943;-77
2023/06/25 09:56:14;;;;;;;;;;;29.00;44.80;;;;;;5085255;27;43539;-85
2023/06/25 09:58:40;;;;;;;;;;;29.00;44.50;;;;;;5101909;27;43010;-77
2023/06/25 10:01:07;;;;;;;;;;;29.00;44.40;;;;;;5103240;27;45510;-77
2023/06/25 10:03:34;;;;;;;;;;;29.00;44.40;;;;;;5102380;27;43032;-78
2023/06/25 10:05:59;;;;;;;;;;;29.00;44.40;;;;;;5105210;27;43469;-81
2023/06/25 10:08:25;;;;;;;;;;;29.00;44.40;;;;;;5105164;27;42999;-78
2023/06/25 10:10:58;;;;;;;;;;;29.00;44.50;;;;;;5104878;27;43705;-77
2023/06/25 10:13:23;;;;;;;;;;;29.00;44.40;;;;;;5104490;27;42901;-79
2023/06/25 10:15:55;;;;;;;;;;;29.00;44.40;;;;;;5104881;27;43941;-79
2023/06/25 10:18:22;;;;;;;;;;;29.10;44.50;;;;;;5105085;27;43009;-78
2023/06/25 10:20:47;;;;;;;;;;;29.00;44.40;;;;;;5104492;27;43584;-76
2023/06/25 10:23:13;;;;;;;;;;;29.00;44.50;;;;;;5105423;27;43572;-77
2023/06/25 10:25:39;;;;;;;;;;;29.00;44.50;;;;;;5104755;27;43659;-77
2023/06/25 10:28:07;;;;;;;;;;;29.00;45.00;;;;;;5105032;27;42821;-77
2023/06/25 10:30:40;;;;;;;;;;;29.00;44.50;;;;;;5104802;27;43795;-79
2023/06/25 10:33:07;;;;;;;;;;;29.00;44.50;;;;;;5092278;27;42733;-77
2023/06/25 10:35:37;;;;;;;;;;;29.00;44.50;;;;;;5102802;27;44330;-78
2023/06/25 10:38:03;;;;;;;;;;;29.00;44.40;;;;;;5105035;27;42880;-77
2023/06/25 10:40:35;;;;;;;;;;;29.00;44.40;;;;;;5104798;27;43730;-76
2023/06/25 10:43:01;;;;;;;;;;;29.00;44.40;;;;;;5104864;27;43387;-79
2023/06/25 10:45:27;;;;;;;;;;;29.00;44.50;;;;;;5103554;27;43003;-77
2023/06/25 10:47:59;;;;;;;;;;;29.00;44.90;;;;;;5104889;27;42948;-78
2023/06/25 10:50:25;;;;;;;;;;;29.00;44.40;;;;;;5104565;27;43486;-77
2023/06/25 10:52:50;;;;;;;;;;;29.00;44.50;;;;;;5105314;27;43029;-78
2023/06/25 10:55:16;;;;;;;;;;;29.00;44.40;;;;;;5107889;27;43028;-82
2023/06/25 10:57:43;;;;;;;;;;;29.00;44.40;;;;;;5108343;27;42984;-78
2023/06/25 11:00:09;;;;;;;;;;;28.90;44.40;;;;;;5104491;27;43723;-77
2023/06/25 11:02:35;;;;;;;;;;;29.00;44.50;;;;;;5105668;27;42993;-77
2023/06/25 11:05:02;;;;;;;;;;;29.00;44.40;;;;;;5087659;27;43450;-77
2023/06/25 11:07:28;;;;;;;;;;;;;;;;;;5107077;27;42762;-80
2023/06/25 11:09:54;;;;;;;;;;;29.00;44.40;;;;;;5107834;27;43540;-79
2023/06/25 11:12:20;;;;;;;;;;;29.00;44.30;;;;;;5107790;27;43045;-77
2023/06/25 11:14:45;;;;;;;;;;;29.00;44.40;;;;;;5107661;27;43158;-78
2023/06/25 11:17:14;;;;;;;;;;;29.00;44.40;;;;;;5108159;27;43075;-79
2023/06/25 11:19:39;;;;;;;;;;;29.00;44.80;;;;;;5107752;27;43494;-78
2023/06/25 11:22:08;;;;;;;;;;;29.00;44.20;;;;;;5107753;27;43050;-78
2023/06/25 11:24:34;;;;;;;;;;;29.10;44.80;;;;;;5108188;27;43680;-77
2023/06/25 11:27:00;;;;;;;;;;;29.00;44.20;;;;;;5107919;27;43146;-78
2023/06/25 11:29:34;;;;;;;;;;;29.00;44.10;;;;;;5107328;27;43000;-81
2023/06/25 11:32:00;;;;;;;;;;;29.10;44.20;;;;;;5107528;27;42868;-77
2023/06/25 11:34:25;;;;;;;;;;;29.10;44.70;;;;;;5107377;27;42991;-76
2023/06/25 11:36:51;;;;;;;;;;;29.00;44.20;;;;;;5107868;27;42987;-77
2023/06/25 11:39:17;;;;;;;;;;;29.10;44.30;;;;;;5107511;27;43078;-77
2023/06/25 11:41:43;;;;;;;;;;;29.10;44.30;;;;;;5107849;27;43046;-78
2023/06/25 11:44:18;;;;;;;;;;;29.00;44.20;;;;;;5107588;27;43025;-82
2023/06/25 11:46:46;;;;;;;;;;;29.00;44.30;;;;;;5107827;27;43275;-77
2023/06/25 11:49:11;;;;;;;;;;;29.10;44.30;;;;;;5104986;27;45140;-76
2023/06/25 11:51:37;;;;;;;;;;;29.10;44.10;;;;;;5107412;27;43735;-76
2023/06/25 11:54:02;;;;;;;;;;;29.10;44.10;;;;;;5106824;27;43008;-77
2023/06/25 11:56:28;;;;;;;;;;;29.10;44.10;;;;;;5106623;27;42888;-78
2023/06/25 11:58:53;;;;;;;;;;;29.00;44.00;;;;;;5107239;27;42877;-78
2023/06/25 12:01:19;;;;;;;;;;;29.00;44.10;;;;;;5107362;27;43027;-77
2023/06/25 12:03:44;;;;;;;;;;;29.00;44.10;;;;;;5105270;27;43642;-78
2023/06/25 12:06:10;;;;;;;;;;;29.10;44.20;;;;;;5105458;27;42920;-76
2023/06/25 12:08:35;;;;;;;;;;;29.20;44.30;;;;;;5093114;27;42926;-77
2023/06/25 12:11:01;;;;;;;;;;;29.10;44.10;;;;;;5106403;27;43119;-77
2023/06/25 12:13:27;;;;;;;;;;;29.10;44.10;;;;;;5107021;27;43505;-85
2023/06/25 12:15:52;;;;;;;;;;;29.10;44.10;;;;;;5106482;27;42906;-77
2023/06/25 12:18:18;;;;;;;;;;;29.10;44.10;;;;;;5107065;27;43898;-77
2023/06/25 12:20:43;;;;;;;;;;;29.10;44.20;;;;;;5106945;27;42998;-88
2023/06/25 12:23:09;;;;;;;;;;;29.10;44.00;;;;;;5106495;27;42957;-80
2023/06/25 12:25:34;;;;;;;;;;;29.10;44.00;;;;;;5106893;27;42869;-78
2023/06/25 12:28:00;;;;;;;;;;;29.10;44.10;;;;;;5106496;27;43721;-85
2023/06/25 12:30:25;;;;;;;;;;;29.10;44.10;;;;;;5106690;27;42988;-77
2023/06/25 12:32:51;;;;;;;;;;;29.10;44.00;;;;;;5106927;27;43053;-77
2023/06/25 12:35:18;;;;;;;;;;;29.10;44.60;;;;;;5107195;27;42900;-80
2023/06/25 12:37:43;;;;;;;;;;;29.10;44.10;;;;;;5105887;27;43722;-79
2023/06/25 12:40:09;;;;;;;;;;;29.10;44.60;;;;;;5106936;27;42889;-81
2023/06/25 12:42:34;;;;;;;;;;;29.10;44.20;;;;;;5093381;27;43619;-79
2023/06/25 12:45:00;;;;;;;;;;;29.10;44.70;;;;;;5105319;27;43066;-77
2023/06/25 12:47:25;;;;;;;;;;;29.10;44.30;;;;;;5101439;27;43774;-80
2023/06/25 12:49:51;;;;;;;;;;;29.10;44.70;;;;;;5098941;27;43005;-86
2023/06/25 12:52:16;;;;;;;;;;;29.10;44.20;;;;;;5105036;27;43838;-78
2023/06/25 12:54:43;;;;;;;;;;;29.20;44.80;;;;;;5105837;27;43098;-76
2023/06/25 12:57:08;;;;;;;;;;;29.10;44.30;;;;;;5105330;27;43884;-79
2023/06/25 12:59:34;;;;;;;;;;;29.10;44.00;;;;;;5100085;27;43020;-80
2023/06/25 13:02:00;;;;;;;;;;;29.00;44.00;;;;;;5114429;27;43940;-77
2023/06/25 13:04:25;;;;;;;;;;;29.10;44.60;;;;;;5104666;27;43025;-76
2023/06/25 13:06:51;;;;;;;;;;;29.10;44.00;;;;;;5105153;27;43080;-80
2023/06/25 13:09:16;;;;;;;;;;;29.10;44.10;;;;;;5104887;27;42963;-77
2023/06/25 13:11:42;;;;;;;;;;;29.20;44.60;;;;;;5104772;27;43468;-76
2023/06/25 13:14:08;;;;;;;;;;;29.10;44.50;;;;;;5105312;27;42966;-78
2023/06/25 13:16:33;;;;;;;;;;;29.20;44.50;;;;;;5112761;27;42983;-75
2023/06/25 13:18:59;;;;;;;;;;;29.10;43.90;;;;;;5104083;27;44089;-76
2023/06/25 13:21:24;;;;;;;;;;;29.20;44.50;;;;;;5103466;27;42957;-76
2023/06/25 13:23:50;;;;;;;;;;;29.20;44.60;;;;;;5108015;27;42957;-79
2023/06/25 13:26:15;;;;;;;;;;;29.20;44.70;;;;;;5113166;27;43322;-76
2023/06/25 13:28:41;;;;;;;;;;;29.10;44.60;;;;;;5105495;27;42986;-79
2023/06/25 13:31:06;;;;;;;;;;;29.10;44.60;;;;;;5105417;27;43810;-77
2023/06/25 13:33:32;;;;;;;;;;;29.10;43.90;;;;;;5109330;27;43110;-80
2023/06/25 13:35:57;;;;;;;;;;;29.20;44.00;;;;;;5118140;27;43457;-76
2023/06/25 13:38:23;;;;;;;;;;;29.20;44.50;;;;;;5112061;27;43023;-78
2023/06/25 13:40:48;;;;;;;;;;;29.20;44.50;;;;;;5105386;27;42830;-76
2023/06/25 13:43:14;;;;;;;;;;;29.20;44.40;;;;;;5104325;27;43039;-77
2023/06/25 13:45:40;;;;;;;;;;;29.20;44.40;;;;;;5110225;27;43481;-76
2023/06/25 13:48:06;;;;;;;;;;;29.10;44.40;;;;;;5109461;27;43161;-81
2023/06/25 13:50:32;;;;;;;;;;;29.10;43.90;;;;;;5105156;27;43718;-76
2023/06/25 13:52:57;;;;;;;;;;;29.10;43.90;;;;;;5106352;27;42978;-76
2023/06/25 13:55:23;;;;;;;;;;;29.10;43.90;;;;;;5116518;27;43709;-77
2023/06/25 13:57:48;;;;;;;;;;;29.20;44.00;;;;;;5100316;27;42954;-83
2023/06/25 14:00:14;;;;;;;;;;;29.10;43.90;;;;;;5098215;27;43685;-78
2023/06/25 14:02:39;;;;;;;;;;;29.20;44.10;;;;;;5113715;27;43031;-76
2023/06/25 14:05:05;;;;;;;;;;;29.10;43.90;;;;;;5112195;27;42920;-83
2023/06/25 14:07:30;;;;;;;;;;;29.20;44.10;;;;;;5104373;27;43019;-77
2023/06/25 14:09:56;;;;;;;;;;;29.10;44.50;;;;;;5105514;27;42882;-77
2023/06/25 14:12:21;;;;;;;;;;;29.20;44.50;;;;;;5115394;27;43002;-77
2023/06/25 14:14:47;;;;;;;;;;;29.20;44.50;;;;;;5104620;27;43657;-77